createdAt,value
2018-03-06T00:01:47.400Z,6.50
2018-03-06T00:04:15.005Z,7.57
2018-03-06T00:06:42.790Z,7.63
2018-03-06T00:09:10.321Z,7.80
2018-03-06T00:11:37.902Z,18.97
2018-03-06T00:14:06.004Z,9.10
2018-03-06T00:16:35.574Z,11.70
2018-03-06T00:19:03.477Z,7.80
2018-03-06T00:21:31.014Z,7.30
2018-03-06T00:23:58.581Z,9.07
2018-03-06T00:26:26.125Z,8.20
2018-03-06T00:28:53.695Z,9.20
2018-03-06T00:31:21.230Z,9.83
2018-03-06T00:33:48.761Z,8.90
2018-03-06T00:36:18.266Z,6.77
2018-03-06T00:38:45.802Z,6.60
2018-03-06T00:41:13.359Z,5.47
2018-03-06T00:43:40.914Z,11.60
2018-03-06T00:46:08.453Z,6.60
2018-03-06T00:48:36.012Z,8.20
2018-03-06T00:51:03.551Z,5.67
2018-03-06T00:53:33.299Z,6.40
2018-03-06T00:56:00.841Z,9.80
2018-03-06T00:58:30.479Z,6.83
2018-03-06T01:00:59.070Z,5.37
2018-03-06T01:03:26.606Z,8.10
2018-03-06T01:05:54.226Z,6.20
2018-03-06T01:08:22.865Z,7.20
2018-03-06T01:10:50.365Z,4.83
2018-03-06T01:13:17.930Z,4.27
2018-03-06T01:15:45.471Z,5.90
2018-03-06T01:18:13.795Z,6.40
2018-03-06T01:20:41.354Z,7.50
2018-03-06T01:23:08.958Z,7.83
2018-03-06T01:25:36.473Z,6.40
2018-03-06T01:28:04.012Z,6.43
2018-03-06T01:30:32.574Z,4.50
2018-03-06T01:33:00.891Z,7.73
2018-03-06T01:35:29.410Z,5.57
2018-03-06T01:38:00.495Z,4.63
2018-03-06T01:40:28.447Z,3.93
2018-03-06T01:42:55.989Z,5.33
2018-03-06T01:45:23.529Z,4.30
2018-03-06T01:47:51.099Z,3.57
2018-03-06T01:50:19.602Z,7.20
2018-03-06T01:52:47.517Z,4.60
2018-03-06T01:55:15.054Z,3.97
2018-03-06T01:57:42.625Z,4.43
2018-03-06T02:00:12.265Z,5.73
2018-03-06T02:07:45.239Z,5.37
2018-03-06T02:10:14.665Z,5.67
2018-03-06T02:12:43.222Z,5.73
2018-03-06T02:15:10.778Z,6.57
2018-03-06T02:17:38.313Z,5.37
2018-03-06T02:20:06.950Z,5.03
2018-03-06T02:22:34.501Z,6.20
2018-03-06T02:25:03.998Z,5.50
2018-03-06T02:27:33.223Z,8.63
2018-03-06T02:30:00.766Z,5.00
2018-03-06T02:32:29.762Z,4.70
2018-03-06T02:34:57.294Z,6.70
2018-03-06T02:37:24.863Z,5.27
2018-03-06T02:39:52.400Z,5.50
2018-03-06T02:42:19.973Z,6.70
2018-03-06T02:44:47.518Z,7.90
2018-03-06T02:47:15.079Z,5.53
2018-03-06T02:49:42.640Z,5.40
2018-03-06T02:52:10.183Z,8.27
2018-03-06T02:54:38.511Z,10.00
2018-03-06T02:57:06.046Z,5.77
2018-03-06T02:59:33.620Z,5.80
2018-03-06T03:02:02.131Z,8.30
2018-03-06T03:04:30.462Z,4.33
2018-03-06T03:06:59.806Z,5.90
2018-03-06T03:12:00.331Z,3.27
2018-03-06T03:14:29.838Z,5.27
2018-03-06T03:19:30.096Z,5.70
2018-03-06T03:21:59.641Z,5.20
2018-03-06T03:24:27.166Z,5.03
2018-03-06T03:26:54.703Z,7.80
2018-03-06T03:29:22.280Z,8.13
2018-03-06T03:31:50.770Z,5.73
2018-03-06T03:34:18.790Z,5.63
2018-03-06T03:36:46.332Z,5.10
2018-03-06T03:39:13.922Z,4.70
2018-03-06T03:41:41.458Z,5.27
2018-03-06T03:44:09.025Z,4.37
2018-03-06T03:46:36.711Z,6.90
2018-03-06T03:49:05.212Z,4.63
2018-03-06T03:51:32.785Z,5.87
2018-03-06T03:54:01.111Z,3.93
2018-03-06T03:56:28.672Z,7.43
2018-03-06T03:58:56.201Z,4.60
2018-03-06T04:01:23.762Z,4.20
2018-03-06T04:03:51.307Z,4.23
2018-03-06T04:06:18.843Z,9.93
2018-03-06T04:08:46.403Z,4.30
2018-03-06T04:11:13.931Z,7.10
2018-03-06T04:13:41.508Z,8.50
2018-03-06T04:16:09.973Z,5.80
2018-03-06T04:21:14.261Z,6.40
2018-03-06T04:23:42.592Z,7.60
2018-03-06T04:26:10.123Z,4.70
2018-03-06T04:28:37.666Z,18.97
2018-03-06T04:31:05.234Z,7.43
2018-03-06T04:36:10.238Z,5.67
2018-03-06T04:38:37.791Z,6.03
2018-03-06T04:41:05.367Z,6.03
2018-03-06T04:43:32.916Z,7.30
2018-03-06T04:46:00.514Z,13.40
2018-03-06T04:48:28.051Z,8.30
2018-03-06T04:50:57.510Z,5.97
2018-03-06T04:53:25.069Z,8.17
2018-03-06T04:55:52.618Z,5.80
2018-03-06T04:58:20.190Z,8.00
2018-03-06T05:00:47.962Z,4.90
2018-03-06T05:03:15.534Z,6.10
2018-03-06T05:05:43.075Z,5.10
2018-03-06T05:08:10.664Z,8.90
2018-03-06T05:10:38.235Z,6.03
2018-03-06T05:13:06.556Z,5.73
2018-03-06T05:15:37.062Z,9.53
2018-03-06T05:18:06.681Z,7.67
2018-03-06T05:20:34.299Z,5.40
2018-03-06T05:23:05.248Z,6.30
2018-03-06T05:25:35.291Z,6.10
2018-03-06T05:28:05.508Z,9.20
2018-03-06T05:30:34.043Z,8.50
2018-03-06T05:33:01.574Z,6.37
2018-03-06T05:35:29.168Z,7.43
2018-03-06T05:37:57.514Z,6.97
2018-03-06T05:40:25.054Z,7.10
2018-03-06T05:42:52.618Z,5.57
2018-03-06T05:45:20.170Z,9.23
2018-03-06T05:47:47.767Z,8.80
2018-03-06T05:50:16.101Z,5.30
2018-03-06T05:52:43.674Z,9.90
2018-03-06T05:55:11.298Z,9.07
2018-03-06T05:57:38.845Z,8.80
2018-03-06T06:00:06.422Z,8.93
2018-03-06T06:02:33.960Z,14.40
2018-03-06T06:05:01.531Z,9.90
2018-03-06T06:07:29.085Z,7.80
2018-03-06T06:09:56.642Z,9.30
2018-03-06T06:12:24.170Z,7.43
2018-03-06T06:14:51.729Z,7.80
2018-03-06T06:17:19.248Z,9.20
2018-03-06T06:19:46.767Z,7.57
2018-03-06T06:22:14.323Z,9.33
2018-03-06T06:24:41.843Z,7.13
2018-03-06T06:27:09.412Z,6.50
2018-03-06T06:29:36.922Z,6.23
2018-03-06T06:32:04.482Z,8.50
2018-03-06T06:34:32.003Z,5.80
2018-03-06T06:36:59.538Z,7.30
2018-03-06T06:39:27.114Z,12.47
2018-03-06T06:41:54.798Z,12.50
2018-03-06T06:44:22.354Z,19.37
2018-03-06T06:46:49.933Z,11.90
2018-03-06T06:49:18.263Z,10.03
2018-03-06T06:51:45.799Z,9.00
2018-03-06T06:54:14.122Z,9.07
2018-03-06T06:56:41.646Z,6.10
2018-03-06T06:59:09.191Z,8.80
2018-03-06T07:01:36.715Z,13.43
2018-03-06T07:04:04.232Z,18.63
2018-03-06T07:06:32.715Z,9.40
2018-03-06T07:09:00.235Z,18.83
2018-03-06T07:11:32.443Z,11.80
2018-03-06T07:13:59.974Z,10.50
2018-03-06T07:16:27.519Z,9.77
2018-03-06T07:18:55.801Z,10.87
2018-03-06T07:21:23.462Z,9.47
2018-03-06T07:23:51.749Z,12.33
2018-03-06T07:26:20.034Z,8.13
2018-03-06T07:28:49.554Z,6.90
2018-03-06T07:31:17.830Z,9.40
2018-03-06T07:33:45.373Z,9.20
2018-03-06T07:36:12.927Z,8.97
2018-03-06T07:38:40.473Z,8.77
2018-03-06T07:41:08.785Z,9.23
2018-03-06T07:43:36.343Z,12.63
2018-03-06T07:46:03.890Z,14.20
2018-03-06T07:48:31.410Z,12.53
2018-03-06T07:50:58.958Z,18.00
2018-03-06T07:53:26.489Z,16.67
2018-03-06T07:55:54.637Z,15.57
2018-03-06T07:58:22.163Z,23.07
2018-03-06T08:00:50.475Z,18.87
2018-03-06T08:03:18.019Z,20.17
2018-03-06T08:05:46.504Z,15.13
2018-03-06T08:08:16.016Z,21.03
2018-03-06T08:10:43.562Z,17.10
2018-03-06T08:13:12.078Z,23.80
2018-03-06T08:15:39.610Z,30.93
2018-03-06T08:18:07.138Z,29.30
2018-03-06T08:20:34.724Z,29.60
2018-03-06T08:23:02.256Z,26.30
2018-03-06T08:25:29.824Z,22.43
2018-03-06T08:27:57.342Z,28.90
2018-03-06T08:30:24.894Z,19.43
2018-03-06T08:32:53.374Z,22.07
2018-03-06T08:35:20.936Z,22.73
2018-03-06T08:37:48.496Z,21.60
2018-03-06T08:40:16.038Z,17.93
2018-03-06T08:42:43.583Z,20.43
2018-03-06T08:45:11.194Z,21.00
2018-03-06T08:47:41.466Z,18.07
2018-03-06T08:50:10.010Z,15.87
2018-03-06T08:52:37.530Z,13.77
2018-03-06T08:55:05.598Z,15.50
2018-03-06T08:57:33.126Z,13.77
2018-03-06T09:00:00.677Z,18.27
2018-03-06T09:02:28.193Z,14.03
2018-03-06T09:04:55.732Z,15.70
2018-03-06T09:07:23.258Z,15.40
2018-03-06T09:09:51.578Z,20.97
2018-03-06T09:12:19.139Z,16.00
2018-03-06T09:14:46.662Z,12.63
2018-03-06T09:17:14.216Z,13.13
2018-03-06T09:19:41.739Z,20.50
2018-03-06T09:22:09.361Z,18.03
2018-03-06T09:24:36.891Z,14.90
2018-03-06T09:27:04.453Z,29.93
2018-03-06T09:29:31.985Z,33.00
2018-03-06T09:32:00.411Z,21.93
2018-03-06T09:34:27.959Z,20.00
2018-03-06T09:36:55.502Z,18.07
2018-03-06T09:39:23.830Z,16.70
2018-03-06T09:41:51.366Z,24.00
2018-03-06T09:44:18.917Z,25.80
2018-03-06T09:46:46.450Z,19.93
2018-03-06T09:49:14.785Z,29.20
2018-03-06T09:51:42.316Z,23.90
2018-03-06T09:54:09.858Z,37.63
2018-03-06T09:56:37.406Z,35.63
2018-03-06T09:59:05.706Z,22.80
2018-03-06T10:01:33.271Z,23.10
2018-03-06T10:04:00.820Z,21.63
2018-03-06T10:06:28.393Z,25.10
2018-03-06T10:08:55.926Z,25.63
2018-03-06T10:11:23.457Z,26.30
2018-03-06T10:13:51.010Z,23.77
2018-03-06T10:16:18.552Z,29.67
2018-03-06T10:18:46.107Z,21.50
2018-03-06T10:21:13.640Z,19.80
2018-03-06T10:23:41.191Z,22.43
2018-03-06T10:26:09.733Z,21.90
2018-03-06T10:28:37.294Z,23.63
2018-03-06T10:31:05.593Z,30.13
2018-03-06T10:33:33.910Z,21.27
2018-03-06T10:36:02.411Z,24.87
2018-03-06T10:38:29.967Z,28.83
2018-03-06T10:40:57.502Z,27.97
2018-03-06T10:43:25.042Z,32.77
2018-03-06T10:45:52.610Z,21.50
2018-03-06T10:48:20.134Z,24.87
2018-03-06T10:50:47.689Z,28.17
2018-03-06T10:53:16.040Z,27.87
2018-03-06T10:55:43.567Z,25.13
2018-03-06T10:58:11.103Z,29.10
2018-03-06T11:00:44.302Z,23.30
2018-03-06T11:03:11.822Z,23.50
2018-03-06T11:05:39.370Z,23.87
2018-03-06T11:08:06.908Z,23.23
2018-03-06T11:10:34.439Z,23.50
2018-03-06T11:13:02.007Z,23.97
2018-03-06T11:15:29.535Z,21.90
2018-03-06T11:17:57.086Z,32.60
2018-03-06T11:20:24.620Z,24.20
2018-03-06T11:22:52.170Z,26.03
2018-03-06T11:25:19.718Z,27.27
2018-03-06T11:27:47.323Z,24.37
2018-03-06T11:30:15.826Z,16.47
2018-03-06T11:32:43.354Z,19.30
2018-03-06T11:35:11.068Z,16.53
2018-03-06T11:37:39.550Z,22.00
2018-03-06T11:40:07.123Z,20.43
2018-03-06T11:42:34.650Z,15.63
2018-03-06T11:45:02.216Z,27.77
2018-03-06T11:47:29.745Z,13.27
2018-03-06T11:49:58.066Z,16.47
2018-03-06T11:52:25.590Z,16.27
2018-03-06T11:54:53.953Z,12.23
2018-03-06T11:57:31.602Z,20.10
2018-03-06T11:59:59.174Z,22.37
2018-03-06T12:02:26.720Z,13.47
2018-03-06T12:04:54.245Z,17.03
2018-03-06T12:07:21.798Z,11.93
2018-03-06T12:09:49.336Z,14.60
2018-03-06T12:12:16.913Z,18.73
2018-03-06T12:14:44.472Z,16.67
2018-03-06T12:17:12.011Z,16.03
2018-03-06T12:19:39.594Z,17.77
2018-03-06T12:22:07.138Z,15.93
2018-03-06T12:24:37.417Z,16.97
2018-03-06T12:27:05.844Z,15.93
2018-03-06T12:29:33.393Z,18.17
2018-03-06T12:32:00.934Z,24.67
2018-03-06T12:34:28.495Z,12.70
2018-03-06T12:36:56.059Z,15.30
2018-03-06T12:39:23.628Z,16.40
2018-03-06T12:41:51.153Z,17.33
2018-03-06T12:44:19.259Z,21.23
2018-03-06T12:46:47.598Z,20.00
2018-03-06T12:49:16.077Z,17.10
2018-03-06T12:51:43.698Z,22.33
2018-03-06T12:54:11.235Z,16.23
2018-03-06T12:56:38.794Z,16.00
2018-03-06T12:59:07.103Z,20.70
2018-03-06T13:01:34.694Z,13.93
2018-03-06T13:04:02.218Z,16.37
2018-03-06T13:06:30.671Z,14.40
2018-03-06T13:08:58.970Z,20.57
2018-03-06T13:11:28.225Z,14.80
2018-03-06T13:13:55.777Z,28.93
2018-03-06T13:16:23.682Z,14.63
2018-03-06T13:18:52.635Z,14.40
2018-03-06T13:21:20.157Z,17.23
2018-03-06T13:23:47.714Z,10.93
2018-03-06T13:26:15.233Z,10.63
2018-03-06T13:28:42.932Z,9.83
2018-03-06T13:31:10.454Z,13.97
2018-03-06T13:33:38.000Z,9.50
2018-03-06T13:36:05.550Z,12.20
2018-03-06T13:38:33.067Z,12.10
2018-03-06T13:41:00.626Z,10.47
2018-03-06T13:43:28.157Z,12.27
2018-03-06T13:45:55.727Z,10.47
2018-03-06T13:48:23.278Z,9.83
2018-03-06T13:50:52.778Z,10.93
2018-03-06T13:53:20.290Z,7.63
2018-03-06T13:55:47.851Z,7.13
2018-03-06T13:58:15.372Z,9.20
2018-03-06T14:00:42.917Z,10.10
2018-03-06T14:03:11.240Z,28.47
2018-03-06T14:05:38.800Z,13.33
2018-03-06T14:08:06.359Z,35.73
2018-03-06T14:10:33.898Z,19.30
2018-03-06T14:13:01.458Z,11.37
2018-03-06T14:15:28.994Z,11.30
2018-03-06T14:17:56.557Z,47.87
2018-03-06T14:20:24.849Z,15.23
2018-03-06T14:22:52.408Z,11.73
2018-03-06T14:25:20.892Z,8.80
2018-03-06T14:27:48.445Z,8.37
2018-03-06T14:30:15.970Z,8.23
2018-03-06T14:32:43.498Z,9.20
2018-03-06T14:35:11.043Z,6.70
2018-03-06T14:37:38.558Z,6.40
2018-03-06T14:40:06.973Z,6.93
2018-03-06T14:42:34.550Z,9.00
2018-03-06T14:45:02.108Z,16.43
2018-03-06T14:47:29.626Z,5.87
2018-03-06T14:49:57.963Z,6.50
2018-03-06T14:52:25.500Z,6.60
2018-03-06T14:54:53.077Z,11.63
2018-03-06T14:57:20.599Z,11.50
2018-03-06T14:59:48.119Z,6.10
2018-03-06T15:02:15.679Z,7.63
2018-03-06T15:04:43.203Z,6.50
2018-03-06T15:07:12.702Z,7.23
2018-03-06T15:09:40.214Z,5.20
2018-03-06T15:12:08.538Z,5.07
2018-03-06T15:14:36.059Z,9.70
2018-03-06T15:17:03.612Z,7.03
2018-03-06T15:19:31.142Z,6.40
2018-03-06T15:21:58.701Z,11.90
2018-03-06T15:24:26.266Z,6.00
2018-03-06T15:26:53.815Z,4.63
2018-03-06T15:29:21.334Z,4.70
2018-03-06T15:31:48.854Z,7.10
2018-03-06T15:34:17.168Z,3.33
2018-03-06T15:36:44.689Z,4.10
2018-03-06T15:39:12.242Z,5.23
2018-03-06T15:41:40.760Z,3.50
2018-03-06T15:44:08.317Z,5.20
2018-03-06T15:46:35.834Z,6.83
2018-03-06T15:49:03.382Z,9.27
2018-03-06T15:51:30.954Z,3.30
2018-03-06T15:53:58.487Z,2.63
2018-03-06T15:56:26.031Z,2.80
2018-03-06T15:58:53.571Z,3.17
2018-03-06T16:01:21.126Z,2.93
2018-03-06T16:03:49.410Z,3.17
2018-03-06T16:06:16.957Z,5.13
2018-03-06T16:08:44.489Z,3.80
2018-03-06T16:11:12.046Z,4.93
2018-03-06T16:13:39.573Z,4.47
2018-03-06T16:16:07.098Z,3.70
2018-03-06T16:18:34.651Z,4.33
2018-03-06T16:21:02.183Z,4.80
2018-03-06T16:23:30.489Z,4.90
2018-03-06T16:25:58.015Z,6.63
2018-03-06T16:28:25.563Z,4.67
2018-03-06T16:30:53.098Z,8.73
2018-03-06T16:33:20.658Z,4.20
2018-03-06T16:35:48.187Z,5.57
2018-03-06T16:38:16.677Z,4.07
2018-03-06T16:40:44.230Z,9.13
2018-03-06T16:43:11.758Z,5.10
2018-03-06T16:45:41.097Z,4.53
2018-03-06T16:48:08.646Z,3.50
2018-03-06T16:50:36.194Z,3.73
2018-03-06T16:53:03.770Z,4.07
2018-03-06T16:55:31.434Z,3.60
2018-03-06T16:57:58.960Z,4.10
2018-03-06T17:00:26.487Z,4.20
2018-03-06T17:02:54.024Z,4.47
2018-03-06T17:05:21.546Z,4.47
2018-03-06T17:07:49.091Z,5.47
2018-03-06T17:10:16.680Z,5.90
2018-03-06T17:12:44.260Z,6.00
2018-03-06T17:15:11.789Z,6.97
2018-03-06T17:17:39.351Z,5.70
2018-03-06T17:20:06.876Z,5.80
2018-03-06T17:22:36.452Z,15.17
2018-03-06T17:25:04.910Z,6.43
2018-03-06T17:27:32.443Z,8.70
2018-03-06T17:30:00.011Z,8.37
2018-03-06T17:32:27.538Z,8.73
2018-03-06T17:34:55.085Z,5.73
2018-03-06T17:37:22.653Z,7.17
2018-03-06T17:39:52.310Z,6.27
2018-03-06T17:42:19.835Z,11.83
2018-03-06T17:44:47.383Z,17.27
2018-03-06T17:47:14.920Z,19.50
2018-03-06T17:49:42.546Z,7.87
2018-03-06T17:52:10.067Z,10.57
2018-03-06T17:54:38.346Z,7.73
2018-03-06T17:57:06.658Z,7.07
2018-03-06T17:59:34.286Z,8.90
2018-03-06T18:02:02.808Z,68.57
2018-03-06T18:04:30.335Z,9.40
2018-03-06T18:06:58.650Z,11.43
2018-03-06T18:09:26.180Z,7.20
2018-03-06T18:11:53.742Z,9.37
2018-03-06T18:14:21.267Z,9.77
2018-03-06T18:16:49.595Z,7.40
2018-03-06T18:19:17.110Z,7.73
2018-03-06T18:21:44.626Z,7.83
2018-03-06T18:24:14.103Z,8.17
2018-03-06T18:26:41.619Z,8.17
2018-03-06T18:29:09.193Z,7.10
2018-03-06T18:31:36.699Z,8.70
2018-03-06T18:34:04.243Z,8.20
2018-03-06T18:36:31.766Z,11.73
2018-03-06T18:39:00.082Z,16.63
2018-03-06T18:41:27.598Z,10.27
2018-03-06T18:43:55.147Z,11.13
2018-03-06T18:46:22.670Z,10.53
2018-03-06T18:48:50.187Z,9.60
2018-03-06T18:51:18.498Z,8.50
2018-03-06T18:53:46.015Z,7.47
2018-03-06T18:56:14.334Z,12.37
2018-03-06T18:58:41.852Z,13.77
2018-03-06T19:04:29.673Z,12.23
2018-03-06T19:07:13.986Z,14.90
2018-03-06T19:09:41.509Z,13.60
2018-03-06T19:12:09.058Z,11.27
2018-03-06T19:14:36.575Z,11.00
2018-03-06T19:17:04.089Z,7.70
2018-03-06T19:19:32.402Z,10.30
2018-03-06T19:21:59.935Z,8.17
2018-03-06T19:24:27.485Z,11.50
2018-03-06T19:26:54.998Z,7.50
2018-03-06T19:29:22.533Z,8.70
2018-03-06T19:31:51.007Z,13.57
2018-03-06T19:34:19.140Z,14.47
2018-03-06T19:36:46.658Z,12.97
2018-03-06T19:39:14.178Z,13.37
2018-03-06T19:41:42.664Z,13.00
2018-03-06T19:44:10.188Z,12.87
2018-03-06T19:46:37.742Z,14.83
2018-03-06T19:49:05.262Z,15.73
2018-03-06T19:51:32.852Z,15.73
2018-03-06T19:54:00.378Z,14.77
2018-03-06T19:56:27.929Z,14.30
2018-03-06T19:58:55.492Z,18.03
2018-03-06T20:01:23.013Z,17.07
2018-03-06T20:03:50.559Z,16.93
2018-03-06T20:06:18.086Z,13.93
2018-03-06T20:08:45.638Z,13.63
2018-03-06T20:11:13.153Z,9.70
2018-03-06T20:13:41.481Z,11.87
2018-03-06T20:16:09.056Z,11.40
2018-03-06T20:18:36.615Z,12.47
2018-03-06T20:21:04.131Z,12.13
2018-03-06T20:23:31.684Z,13.40
2018-03-06T20:26:00.134Z,13.13
2018-03-06T20:28:27.689Z,13.53
2018-03-06T20:31:00.753Z,13.53
2018-03-06T20:33:28.304Z,10.53
2018-03-06T20:35:56.857Z,17.17
2018-03-06T20:38:30.139Z,10.27
2018-03-06T20:40:57.662Z,13.57
2018-03-06T20:43:25.970Z,11.53
2018-03-06T20:46:00.900Z,10.93
2018-03-06T20:48:29.213Z,14.53
2018-03-06T20:50:56.763Z,17.40
2018-03-06T20:53:30.010Z,15.23
2018-03-06T20:55:59.527Z,14.20
2018-03-06T20:58:27.042Z,14.70
2018-03-06T21:00:54.609Z,17.57
2018-03-06T21:03:22.149Z,18.57
2018-03-06T21:05:49.734Z,13.60
2018-03-06T21:08:17.251Z,13.07
2018-03-06T21:10:44.815Z,10.80
2018-03-06T21:13:12.332Z,11.00
2018-03-06T21:15:39.855Z,11.90
2018-03-06T21:18:07.421Z,10.67
2018-03-06T21:20:34.971Z,17.40
2018-03-06T21:23:02.535Z,15.90
2018-03-06T21:25:30.067Z,12.50
2018-03-06T21:27:57.607Z,14.53
2018-03-06T21:30:25.165Z,12.53
2018-03-06T21:32:53.528Z,14.10
2018-03-06T21:35:21.245Z,15.70
2018-03-06T21:37:48.843Z,13.80
2018-03-06T21:40:18.116Z,14.57
2018-03-06T21:42:45.642Z,15.20
2018-03-06T21:45:13.226Z,12.63
2018-03-06T21:47:41.692Z,14.10
2018-03-06T21:50:09.247Z,16.37
2018-03-06T21:52:36.762Z,19.73
2018-03-06T21:55:06.927Z,20.20
2018-03-06T21:57:34.446Z,14.53
2018-03-06T22:00:02.016Z,14.97
2018-03-06T22:02:29.545Z,15.00
2018-03-06T22:04:57.284Z,14.70
2018-03-06T22:07:26.045Z,14.80
2018-03-06T22:09:53.573Z,13.93
2018-03-06T22:12:23.078Z,12.53
2018-03-06T22:14:50.609Z,12.73
2018-03-06T22:17:19.402Z,12.50
2018-03-06T22:19:46.931Z,12.43
2018-03-06T22:22:14.478Z,11.30
2018-03-06T22:24:42.018Z,12.80
2018-03-06T22:27:09.573Z,11.43
2018-03-06T22:29:37.968Z,11.13
2018-03-06T22:32:05.569Z,10.93
2018-03-06T22:34:33.094Z,10.53
2018-03-06T22:37:00.625Z,12.43
2018-03-06T22:39:28.163Z,13.10
2018-03-06T22:41:56.661Z,9.57
2018-03-06T22:44:24.982Z,10.30
2018-03-06T22:46:53.485Z,9.60
2018-03-06T22:49:21.051Z,10.23
2018-03-06T22:51:48.578Z,13.10
2018-03-06T22:54:16.129Z,14.50
2018-03-06T22:56:43.650Z,11.80
2018-03-06T22:59:11.187Z,11.23
2018-03-06T23:01:38.745Z,9.83
2018-03-06T23:04:07.041Z,11.93
2018-03-06T23:06:35.346Z,9.87
2018-03-06T23:09:02.867Z,10.80
2018-03-06T23:11:31.196Z,10.17
2018-03-06T23:13:58.718Z,12.20
2018-03-06T23:16:26.762Z,11.90
2018-03-06T23:18:54.282Z,8.13
2018-03-06T23:21:21.811Z,10.03
2018-03-06T23:23:49.350Z,8.90
2018-03-06T23:26:17.690Z,9.40
2018-03-06T23:28:45.337Z,12.93
2018-03-06T23:31:12.901Z,7.60
2018-03-06T23:33:44.189Z,7.80
2018-03-06T23:36:15.399Z,9.20
2018-03-06T23:38:46.276Z,7.83
2018-03-06T23:41:16.627Z,10.43
2018-03-06T23:43:46.281Z,11.63
2018-03-06T23:46:13.856Z,9.23
2018-03-06T23:48:42.187Z,7.53
2018-03-06T23:51:09.785Z,10.73
2018-03-06T23:53:37.350Z,8.33
2018-03-06T23:56:05.906Z,7.87
2018-03-06T23:58:33.468Z,7.47
